sensor_id;sensor_type;location;lat;lon;timestamp;noise_LAeq;noise_LA_min;noise_LA_max;noise_LA01;noise_LA95
67294;Laerm;58160;51.434;5.978;2023-03-23T00:00:04;32.44;30.84;34.58;;
67294;Laerm;58160;51.434;5.978;2023-03-23T00:00:15;32.58;31.02;34.69;;
67294;Laerm;58160;51.434;5.978;2023-03-23T00:00:26;32.52;30.54;34.88;;
67294;Laerm;58160;51.434;5.978;2023-03-23T00:00:36;32.93;31.39;34.42;;
67294;Laerm;58160;51.434;5.978;2023-03-23T00:00:47;32.15;30.71;33.85;;
67294;Laerm;58160;51.434;5.978;2023-03-23T00:00:57;32.22;30.37;33.47;;
67294;Laerm;58160;51.434;5.978;2023-03-23T00:01:09;33.23;31.30;35.27;;
67294;Laerm;58160;51.434;5.978;2023-03-23T00:01:21;34.14;32.36;38.61;;
67294;Laerm;58160;51.434;5.978;2023-03-23T00:01:32;33.01;31.36;34.43;;
67294;Laerm;58160;51.434;5.978;2023-03-23T00:01:47;33.52;31.68;35.97;;
67294;Laerm;58160;51.434;5.978;2023-03-23T00:01:59;32.25;30.99;33.60;;
67294;Laerm;58160;51.434;5.978;2023-03-23T00:02:09;32.79;30.92;34.85;;
67294;Laerm;58160;51.434;5.978;2023-03-23T00:02:27;32.97;31.31;35.11;;
67294;Laerm;58160;51.434;5.978;2023-03-23T00:02:37;32.50;30.98;41.51;;
67294;Laerm;58160;51.434;5.978;2023-03-23T00:02:48;32.18;30.78;33.64;;
67294;Laerm;58160;51.434;5.978;2023-03-23T00:02:58;31.92;30.65;33.64;;
67294;Laerm;58160;51.434;5.978;2023-03-23T00:03:09;32.95;31.51;34.30;;
67294;Laerm;58160;51.434;5.978;2023-03-23T00:03:20;32.59;31.04;34.41;;
67294;Laerm;58160;51.434;5.978;2023-03-23T00:03:31;32.20;30.58;33.86;;
67294;Laerm;58160;51.434;5.978;2023-03-23T00:03:41;32.57;31.06;35.47;;
67294;Laerm;58160;51.434;5.978;2023-03-23T00:03:53;32.62;31.05;35.50;;
67294;Laerm;58160;51.434;5.978;2023-03-23T00:04:03;32.77;31.18;35.32;;
67294;Laerm;58160;51.434;5.978;2023-03-23T00:04:14;33.18;31.73;36.06;;
67294;Laerm;58160;51.434;5.978;2023-03-23T00:04:25;34.88;32.27;48.06;;
67294;Laerm;58160;51.434;5.978;2023-03-23T00:04:37;33.38;31.62;35.18;;
67294;Laerm;58160;51.434;5.978;2023-03-23T00:04:47;32.73;30.71;38.96;;
67294;Laerm;58160;51.434;5.978;2023-03-23T00:04:59;32.79;30.93;34.43;;
67294;Laerm;58160;51.434;5.978;2023-03-23T00:05:10;32.61;30.97;35.13;;
67294;Laerm;58160;51.434;5.978;2023-03-23T00:05:21;33.15;31.27;35.77;;
67294;Laerm;58160;51.434;5.978;2023-03-23T00:05:31;32.96;31.17;43.86;;
67294;Laerm;58160;51.434;5.978;2023-03-23T00:05:41;31.86;30.80;33.18;;
67294;Laerm;58160;51.434;5.978;2023-03-23T00:06:00;32.89;30.62;37.18;;
67294;Laerm;58160;51.434;5.978;2023-03-23T00:06:12;33.27;31.02;41.63;;
67294;Laerm;58160;51.434;5.978;2023-03-23T00:06:27;32.80;31.19;35.33;;
67294;Laerm;58160;51.434;5.978;2023-03-23T00:06:37;32.50;30.66;34.25;;
67294;Laerm;58160;51.434;5.978;2023-03-23T00:06:48;32.37;30.98;34.10;;
67294;Laerm;58160;51.434;5.978;2023-03-23T00:06:59;32.78;30.83;35.28;;
67294;Laerm;58160;51.434;5.978;2023-03-23T00:07:12;32.33;30.63;33.77;;
67294;Laerm;58160;51.434;5.978;2023-03-23T00:07:33;31.93;30.56;42.46;;
67294;Laerm;58160;51.434;5.978;2023-03-23T00:07:44;32.22;30.58;34.43;;
67294;Laerm;58160;51.434;5.978;2023-03-23T00:07:55;32.15;31.04;33.91;;
67294;Laerm;58160;51.434;5.978;2023-03-23T00:08:05;32.57;31.14;38.93;;
67294;Laerm;58160;51.434;5.978;2023-03-23T00:08:16;32.98;30.94;38.13;;
67294;Laerm;58160;51.434;5.978;2023-03-23T00:08:27;37.71;31.53;55.96;;
67294;Laerm;58160;51.434;5.978;2023-03-23T00:08:38;33.79;31.03;44.84;;
67294;Laerm;58160;51.434;5.978;2023-03-23T00:08:55;32.03;30.44;46.69;;
67294;Laerm;58160;51.434;5.978;2023-03-23T00:09:09;31.56;30.25;38.98;;
67294;Laerm;58160;51.434;5.978;2023-03-23T00:09:19;32.03;30.83;34.00;;
67294;Laerm;58160;51.434;5.978;2023-03-23T00:09:33;32.32;30.56;37.77;;
67294;Laerm;58160;51.434;5.978;2023-03-23T00:09:51;32.24;30.91;41.02;;
67294;Laerm;58160;51.434;5.978;2023-03-23T00:10:04;32.19;30.90;33.54;;
67294;Laerm;58160;51.434;5.978;2023-03-23T00:10:14;33.15;30.99;34.86;;
67294;Laerm;58160;51.434;5.978;2023-03-23T00:10:24;33.71;32.31;37.32;;
67294;Laerm;58160;51.434;5.978;2023-03-23T00:10:36;34.33;32.67;41.56;;
67294;Laerm;58160;51.434;5.978;2023-03-23T00:10:49;34.39;32.63;39.57;;
67294;Laerm;58160;51.434;5.978;2023-03-23T00:11:02;46.50;32.93;57.55;;
67294;Laerm;58160;51.434;5.978;2023-03-23T00:11:19;47.49;31.56;57.83;;
67294;Laerm;58160;51.434;5.978;2023-03-23T00:11:31;31.81;30.42;33.87;;
67294;Laerm;58160;51.434;5.978;2023-03-23T00:11:41;31.72;30.36;33.28;;
67294;Laerm;58160;51.434;5.978;2023-03-23T00:11:52;32.53;31.16;34.40;;
67294;Laerm;58160;51.434;5.978;2023-03-23T00:12:07;33.13;31.24;35.66;;
67294;Laerm;58160;51.434;5.978;2023-03-23T00:12:17;35.59;32.12;40.15;;
67294;Laerm;58160;51.434;5.978;2023-03-23T00:12:28;36.51;32.35;41.87;;
67294;Laerm;58160;51.434;5.978;2023-03-23T00:12:44;34.30;30.90;48.31;;
67294;Laerm;58160;51.434;5.978;2023-03-23T00:12:55;33.47;31.24;35.71;;
67294;Laerm;58160;51.434;5.978;2023-03-23T00:13:07;32.79;31.40;35.04;;
67294;Laerm;58160;51.434;5.978;2023-03-23T00:13:18;32.54;31.33;34.02;;
67294;Laerm;58160;51.434;5.978;2023-03-23T00:13:30;33.36;31.73;35.32;;
67294;Laerm;58160;51.434;5.978;2023-03-23T00:13:41;33.32;31.61;35.50;;
67294;Laerm;58160;51.434;5.978;2023-03-23T00:13:52;34.11;32.02;38.76;;
67294;Laerm;58160;51.434;5.978;2023-03-23T00:14:02;33.61;31.05;37.68;;
67294;Laerm;58160;51.434;5.978;2023-03-23T00:14:12;32.92;31.61;38.47;;
67294;Laerm;58160;51.434;5.978;2023-03-23T00:14:23;32.77;30.95;34.53;;
67294;Laerm;58160;51.434;5.978;2023-03-23T00:14:34;32.28;30.94;38.54;;
67294;Laerm;58160;51.434;5.978;2023-03-23T00:14:53;32.09;30.73;37.26;;
67294;Laerm;58160;51.434;5.978;2023-03-23T00:15:04;32.17;31.07;36.67;;
67294;Laerm;58160;51.434;5.978;2023-03-23T00:15:15;31.92;30.47;33.33;;
67294;Laerm;58160;51.434;5.978;2023-03-23T00:15:26;32.51;30.94;34.87;;
67294;Laerm;58160;51.434;5.978;2023-03-23T00:15:37;36.73;32.32;48.17;;
67294;Laerm;58160;51.434;5.978;2023-03-23T00:15:51;34.13;31.40;40.34;;
67294;Laerm;58160;51.434;5.978;2023-03-23T00:16:04;32.52;30.80;36.46;;
67294;Laerm;58160;51.434;5.978;2023-03-23T00:16:14;32.50;31.19;34.13;;
67294;Laerm;58160;51.434;5.978;2023-03-23T00:16:31;32.65;30.82;34.31;;
67294;Laerm;58160;51.434;5.978;2023-03-23T00:16:42;33.31;31.66;34.78;;
67294;Laerm;58160;51.434;5.978;2023-03-23T00:16:52;34.74;32.39;37.51;;
67294;Laerm;58160;51.434;5.978;2023-03-23T00:17:03;34.56;31.93;36.63;;
67294;Laerm;58160;51.434;5.978;2023-03-23T00:17:13;33.06;31.58;36.42;;
67294;Laerm;58160;51.434;5.978;2023-03-23T00:17:24;35.82;31.62;50.26;;
67294;Laerm;58160;51.434;5.978;2023-03-23T00:17:34;35.54;32.50;46.32;;
67294;Laerm;58160;51.434;5.978;2023-03-23T00:17:45;34.30;30.73;42.57;;
67294;Laerm;58160;51.434;5.978;2023-03-23T00:17:55;32.80;30.94;39.56;;
67294;Laerm;58160;51.434;5.978;2023-03-23T00:18:12;32.48;31.17;34.23;;
67294;Laerm;58160;51.434;5.978;2023-03-23T00:18:31;37.90;31.51;48.61;;
67294;Laerm;58160;51.434;5.978;2023-03-23T00:18:45;32.96;30.65;39.85;;
67294;Laerm;58160;51.434;5.978;2023-03-23T00:18:59;32.77;31.02;38.23;;
67294;Laerm;58160;51.434;5.978;2023-03-23T00:19:10;33.19;31.40;35.48;;
67294;Laerm;58160;51.434;5.978;2023-03-23T00:19:23;32.95;30.91;44.45;;
67294;Laerm;58160;51.434;5.978;2023-03-23T00:19:33;33.18;31.50;34.88;;
67294;Laerm;58160;51.434;5.978;2023-03-23T00:19:44;33.86;31.74;36.90;;
67294;Laerm;58160;51.434;5.978;2023-03-23T00:20:02;34.00;32.06;39.22;;
67294;Laerm;58160;51.434;5.978;2023-03-23T00:20:15;33.45;31.10;41.10;;
67294;Laerm;58160;51.434;5.978;2023-03-23T00:20:26;32.61;30.95;45.62;;
67294;Laerm;58160;51.434;5.978;2023-03-23T00:20:39;33.84;31.78;35.49;;
67294;Laerm;58160;51.434;5.978;2023-03-23T00:20:51;35.43;32.57;37.84;;
67294;Laerm;58160;51.434;5.978;2023-03-23T00:21:02;36.39;32.12;45.55;;
67294;Laerm;58160;51.434;5.978;2023-03-23T00:21:14;33.41;31.63;35.27;;
67294;Laerm;58160;51.434;5.978;2023-03-23T00:21:28;34.06;31.58;44.76;;
67294;Laerm;58160;51.434;5.978;2023-03-23T00:21:43;32.46;30.78;43.34;;
67294;Laerm;58160;51.434;5.978;2023-03-23T00:21:53;33.57;31.55;36.78;;
67294;Laerm;58160;51.434;5.978;2023-03-23T00:22:03;33.12;31.06;38.67;;
67294;Laerm;58160;51.434;5.978;2023-03-23T00:22:14;32.31;30.68;41.24;;
67294;Laerm;58160;51.434;5.978;2023-03-23T00:22:27;33.01;31.15;36.54;;
67294;Laerm;58160;51.434;5.978;2023-03-23T00:22:37;31.77;30.41;33.96;;
67294;Laerm;58160;51.434;5.978;2023-03-23T00:22:48;31.78;30.54;32.87;;
67294;Laerm;58160;51.434;5.978;2023-03-23T00:22:58;31.76;30.57;33.03;;
67294;Laerm;58160;51.434;5.978;2023-03-23T00:23:10;32.10;30.85;33.29;;
67294;Laerm;58160;51.434;5.978;2023-03-23T00:23:21;32.39;30.52;35.05;;
67294;Laerm;58160;51.434;5.978;2023-03-23T00:23:32;34.36;31.61;37.50;;
67294;Laerm;58160;51.434;5.978;2023-03-23T00:23:43;33.03;31.45;34.73;;
67294;Laerm;58160;51.434;5.978;2023-03-23T00:23:54;32.82;30.99;35.14;;
67294;Laerm;58160;51.434;5.978;2023-03-23T00:24:17;32.34;30.91;34.06;;
67294;Laerm;58160;51.434;5.978;2023-03-23T00:24:28;32.09;30.58;34.20;;
67294;Laerm;58160;51.434;5.978;2023-03-23T00:24:39;32.94;31.23;43.84;;
67294;Laerm;58160;51.434;5.978;2023-03-23T00:24:49;31.92;30.75;33.91;;
67294;Laerm;58160;51.434;5.978;2023-03-23T00:25:03;32.89;31.04;36.36;;
67294;Laerm;58160;51.434;5.978;2023-03-23T00:25:13;32.90;31.07;35.33;;
67294;Laerm;58160;51.434;5.978;2023-03-23T00:25:26;34.01;31.89;36.64;;
67294;Laerm;58160;51.434;5.978;2023-03-23T00:25:36;34.49;32.24;46.61;;
67294;Laerm;58160;51.434;5.978;2023-03-23T00:25:51;33.18;31.39;40.17;;
67294;Laerm;58160;51.434;5.978;2023-03-23T00:26:03;31.99;30.47;34.05;;
67294;Laerm;58160;51.434;5.978;2023-03-23T00:26:13;31.92;30.90;33.54;;
67294;Laerm;58160;51.434;5.978;2023-03-23T00:26:23;32.45;30.84;34.30;;
67294;Laerm;58160;51.434;5.978;2023-03-23T00:26:35;33.21;31.50;35.84;;
67294;Laerm;58160;51.434;5.978;2023-03-23T00:26:46;34.59;31.50;44.45;;
67294;Laerm;58160;51.434;5.978;2023-03-23T00:26:57;32.84;30.98;42.30;;
67294;Laerm;58160;51.434;5.978;2023-03-23T00:27:08;34.04;31.48;38.24;;
67294;Laerm;58160;51.434;5.978;2023-03-23T00:27:22;33.57;30.62;41.98;;
67294;Laerm;58160;51.434;5.978;2023-03-23T00:27:32;32.39;30.83;34.33;;
67294;Laerm;58160;51.434;5.978;2023-03-23T00:27:43;32.32;30.97;34.13;;
67294;Laerm;58160;51.434;5.978;2023-03-23T00:27:54;32.46;30.98;35.28;;
67294;Laerm;58160;51.434;5.978;2023-03-23T00:28:04;33.76;31.94;35.62;;
67294;Laerm;58160;51.434;5.978;2023-03-23T00:28:15;33.31;31.84;36.04;;
67294;Laerm;58160;51.434;5.978;2023-03-23T00:28:26;33.85;32.01;38.75;;
67294;Laerm;58160;51.434;5.978;2023-03-23T00:28:37;34.30;31.93;36.99;;
67294;Laerm;58160;51.434;5.978;2023-03-23T00:28:49;33.27;31.59;35.66;;
67294;Laerm;58160;51.434;5.978;2023-03-23T00:29:02;32.88;31.57;34.62;;
67294;Laerm;58160;51.434;5.978;2023-03-23T00:29:14;32.97;31.43;35.10;;
67294;Laerm;58160;51.434;5.978;2023-03-23T00:29:25;33.00;30.84;37.50;;
67294;Laerm;58160;51.434;5.978;2023-03-23T00:29:36;32.68;31.08;38.99;;
67294;Laerm;58160;51.434;5.978;2023-03-23T00:29:47;32.61;30.59;39.45;;
67294;Laerm;58160;51.434;5.978;2023-03-23T00:29:57;33.46;30.76;40.83;;
67294;Laerm;58160;51.434;5.978;2023-03-23T00:30:07;33.53;30.79;47.12;;
67294;Laerm;58160;51.434;5.978;2023-03-23T00:30:18;34.74;31.67;42.91;;
67294;Laerm;58160;51.434;5.978;2023-03-23T00:30:28;34.78;31.78;39.17;;
67294;Laerm;58160;51.434;5.978;2023-03-23T00:30:40;33.38;31.34;39.86;;
67294;Laerm;58160;51.434;5.978;2023-03-23T00:31:04;33.95;31.49;41.32;;
67294;Laerm;58160;51.434;5.978;2023-03-23T00:31:18;33.75;30.90;46.00;;
67294;Laerm;58160;51.434;5.978;2023-03-23T00:31:29;33.96;31.24;44.25;;
67294;Laerm;58160;51.434;5.978;2023-03-23T00:31:45;34.05;31.51;42.07;;
67294;Laerm;58160;51.434;5.978;2023-03-23T00:31:58;33.49;31.66;41.83;;
67294;Laerm;58160;51.434;5.978;2023-03-23T00:32:09;33.64;31.57;39.80;;
67294;Laerm;58160;51.434;5.978;2023-03-23T00:32:23;33.14;31.50;35.17;;
67294;Laerm;58160;51.434;5.978;2023-03-23T00:32:39;35.05;31.77;42.91;;
67294;Laerm;58160;51.434;5.978;2023-03-23T00:32:50;41.76;36.36;54.30;;
67294;Laerm;58160;51.434;5.978;2023-03-23T00:33:00;40.74;36.47;49.04;;
67294;Laerm;58160;51.434;5.978;2023-03-23T00:33:11;37.10;33.06;49.05;;
67294;Laerm;58160;51.434;5.978;2023-03-23T00:33:32;35.01;32.38;39.26;;
67294;Laerm;58160;51.434;5.978;2023-03-23T00:33:47;34.08;31.65;37.71;;
67294;Laerm;58160;51.434;5.978;2023-03-23T00:33:59;34.49;32.77;45.04;;
67294;Laerm;58160;51.434;5.978;2023-03-23T00:34:11;34.72;32.47;38.70;;
67294;Laerm;58160;51.434;5.978;2023-03-23T00:34:22;34.19;32.58;38.31;;
67294;Laerm;58160;51.434;5.978;2023-03-23T00:34:34;33.58;31.46;35.25;;
67294;Laerm;58160;51.434;5.978;2023-03-23T00:34:45;33.32;31.85;35.08;;
67294;Laerm;58160;51.434;5.978;2023-03-23T00:34:57;33.52;31.57;36.61;;
67294;Laerm;58160;51.434;5.978;2023-03-23T00:35:10;32.74;31.08;35.39;;
67294;Laerm;58160;51.434;5.978;2023-03-23T00:35:21;32.45;30.45;36.74;;
67294;Laerm;58160;51.434;5.978;2023-03-23T00:35:31;32.53;31.06;43.01;;
67294;Laerm;58160;51.434;5.978;2023-03-23T00:35:41;32.70;31.02;34.23;;
67294;Laerm;58160;51.434;5.978;2023-03-23T00:35:54;33.21;31.51;35.25;;
67294;Laerm;58160;51.434;5.978;2023-03-23T00:36:05;35.22;31.68;42.86;;
67294;Laerm;58160;51.434;5.978;2023-03-23T00:36:15;35.11;32.74;38.40;;
67294;Laerm;58160;51.434;5.978;2023-03-23T00:36:27;35.24;32.73;38.05;;
67294;Laerm;58160;51.434;5.978;2023-03-23T00:36:39;34.76;33.00;36.63;;
67294;Laerm;58160;51.434;5.978;2023-03-23T00:36:53;34.93;33.07;37.36;;
67294;Laerm;58160;51.434;5.978;2023-03-23T00:37:06;35.28;33.48;39.69;;
67294;Laerm;58160;51.434;5.978;2023-03-23T00:37:17;35.55;34.21;37.74;;
67294;Laerm;58160;51.434;5.978;2023-03-23T00:37:28;35.02;33.05;37.68;;
67294;Laerm;58160;51.434;5.978;2023-03-23T00:37:38;37.12;34.13;39.96;;
67294;Laerm;58160;51.434;5.978;2023-03-23T00:37:48;37.95;35.32;40.85;;
67294;Laerm;58160;51.434;5.978;2023-03-23T00:37:59;37.11;34.80;39.87;;
67294;Laerm;58160;51.434;5.978;2023-03-23T00:38:09;34.99;33.09;37.56;;
67294;Laerm;58160;51.434;5.978;2023-03-23T00:38:21;35.65;32.90;42.07;;
67294;Laerm;58160;51.434;5.978;2023-03-23T00:38:32;34.52;32.14;37.49;;
67294;Laerm;58160;51.434;5.978;2023-03-23T00:38:42;33.37;31.84;35.29;;
67294;Laerm;58160;51.434;5.978;2023-03-23T00:38:54;33.00;31.57;35.97;;
67294;Laerm;58160;51.434;5.978;2023-03-23T00:39:08;33.19;31.69;35.89;;
67294;Laerm;58160;51.434;5.978;2023-03-23T00:39:18;32.45;30.99;34.19;;
67294;Laerm;58160;51.434;5.978;2023-03-23T00:39:29;32.44;30.88;33.60;;
67294;Laerm;58160;51.434;5.978;2023-03-23T00:39:39;32.36;30.82;34.13;;
67294;Laerm;58160;51.434;5.978;2023-03-23T00:39:55;32.48;30.98;34.89;;
67294;Laerm;58160;51.434;5.978;2023-03-23T00:40:07;32.25;30.70;34.01;;
67294;Laerm;58160;51.434;5.978;2023-03-23T00:40:20;32.52;30.65;44.77;;
67294;Laerm;58160;51.434;5.978;2023-03-23T00:40:30;31.86;30.66;36.09;;
67294;Laerm;58160;51.434;5.978;2023-03-23T00:40:40;31.45;30.23;33.07;;
67294;Laerm;58160;51.434;5.978;2023-03-23T00:40:51;31.99;30.64;33.48;;
67294;Laerm;58160;51.434;5.978;2023-03-23T00:41:01;32.37;30.80;33.73;;
67294;Laerm;58160;51.434;5.978;2023-03-23T00:41:12;32.15;30.79;33.46;;
67294;Laerm;58160;51.434;5.978;2023-03-23T00:41:25;31.88;30.48;33.11;;
67294;Laerm;58160;51.434;5.978;2023-03-23T00:41:39;32.06;30.42;34.23;;
67294;Laerm;58160;51.434;5.978;2023-03-23T00:41:49;33.15;31.28;35.41;;
67294;Laerm;58160;51.434;5.978;2023-03-23T00:42:00;33.29;31.29;40.52;;
67294;Laerm;58160;51.434;5.978;2023-03-23T00:42:13;33.83;31.50;37.03;;
67294;Laerm;58160;51.434;5.978;2023-03-23T00:42:24;35.39;32.83;37.70;;
67294;Laerm;58160;51.434;5.978;2023-03-23T00:42:35;34.80;33.15;40.74;;
67294;Laerm;58160;51.434;5.978;2023-03-23T00:42:48;33.61;31.78;35.62;;
67294;Laerm;58160;51.434;5.978;2023-03-23T00:42:58;32.38;31.07;34.74;;
67294;Laerm;58160;51.434;5.978;2023-03-23T00:43:13;32.78;30.73;35.12;;
67294;Laerm;58160;51.434;5.978;2023-03-23T00:43:25;39.44;33.53;56.09;;
67294;Laerm;58160;51.434;5.978;2023-03-23T00:43:38;34.69;32.11;45.01;;
67294;Laerm;58160;51.434;5.978;2023-03-23T00:43:49;34.04;31.92;36.13;;
67294;Laerm;58160;51.434;5.978;2023-03-23T00:44:01;33.74;31.71;36.43;;
67294;Laerm;58160;51.434;5.978;2023-03-23T00:44:12;34.69;31.69;48.15;;
67294;Laerm;58160;51.434;5.978;2023-03-23T00:44:29;32.12;31.02;34.40;;
67294;Laerm;58160;51.434;5.978;2023-03-23T00:44:40;32.18;31.01;33.67;;
67294;Laerm;58160;51.434;5.978;2023-03-23T00:44:50;32.10;30.86;36.06;;
67294;Laerm;58160;51.434;5.978;2023-03-23T00:45:04;32.35;31.09;33.80;;
67294;Laerm;58160;51.434;5.978;2023-03-23T00:45:20;33.26;31.15;35.42;;
67294;Laerm;58160;51.434;5.978;2023-03-23T00:45:30;34.02;32.20;42.06;;
67294;Laerm;58160;51.434;5.978;2023-03-23T00:45:42;35.83;31.88;40.57;;
67294;Laerm;58160;51.434;5.978;2023-03-23T00:45:52;37.99;35.40;40.17;;
67294;Laerm;58160;51.434;5.978;2023-03-23T00:46:03;36.56;33.87;44.44;;
67294;Laerm;58160;51.434;5.978;2023-03-23T00:46:18;36.13;31.29;53.42;;
67294;Laerm;58160;51.434;5.978;2023-03-23T00:46:30;32.68;31.38;34.04;;
67294;Laerm;58160;51.434;5.978;2023-03-23T00:46:40;32.49;31.13;34.27;;
67294;Laerm;58160;51.434;5.978;2023-03-23T00:46:54;32.46;31.06;33.74;;
67294;Laerm;58160;51.434;5.978;2023-03-23T00:47:06;32.44;30.80;34.33;;
67294;Laerm;58160;51.434;5.978;2023-03-23T00:47:18;32.60;30.71;47.11;;
67294;Laerm;58160;51.434;5.978;2023-03-23T00:47:28;32.82;30.90;39.66;;
67294;Laerm;58160;51.434;5.978;2023-03-23T00:47:40;34.02;31.66;44.07;;
67294;Laerm;58160;51.434;5.978;2023-03-23T00:47:56;34.60;32.32;38.49;;
67294;Laerm;58160;51.434;5.978;2023-03-23T00:48:11;35.28;33.19;37.34;;
67294;Laerm;58160;51.434;5.978;2023-03-23T00:48:25;41.98;34.51;49.16;;
67294;Laerm;58160;51.434;5.978;2023-03-23T00:48:36;49.23;45.39;52.85;;
67294;Laerm;58160;51.434;5.978;2023-03-23T00:48:46;50.83;47.91;54.30;;
67294;Laerm;58160;51.434;5.978;2023-03-23T00:48:56;47.34;41.91;51.44;;
67294;Laerm;58160;51.434;5.978;2023-03-23T00:49:07;37.71;33.56;43.47;;
67294;Laerm;58160;51.434;5.978;2023-03-23T00:49:20;34.05;32.33;37.90;;
67294;Laerm;58160;51.434;5.978;2023-03-23T00:49:34;33.39;31.23;36.39;;
67294;Laerm;58160;51.434;5.978;2023-03-23T00:49:45;33.80;32.44;40.38;;
67294;Laerm;58160;51.434;5.978;2023-03-23T00:49:55;34.71;32.05;46.60;;
67294;Laerm;58160;51.434;5.978;2023-03-23T00:50:06;36.12;32.64;49.12;;
67294;Laerm;58160;51.434;5.978;2023-03-23T00:50:17;33.79;32.04;38.27;;
67294;Laerm;58160;51.434;5.978;2023-03-23T00:50:28;33.74;31.60;35.84;;
67294;Laerm;58160;51.434;5.978;2023-03-23T00:50:39;35.38;32.86;40.81;;
67294;Laerm;58160;51.434;5.978;2023-03-23T00:50:49;34.29;32.37;39.61;;
67294;Laerm;58160;51.434;5.978;2023-03-23T00:51:01;34.20;32.67;36.23;;
67294;Laerm;58160;51.434;5.978;2023-03-23T00:51:16;34.44;32.65;36.13;;
67294;Laerm;58160;51.434;5.978;2023-03-23T00:51:26;32.90;31.13;34.95;;
67294;Laerm;58160;51.434;5.978;2023-03-23T00:51:36;32.59;31.13;34.11;;
67294;Laerm;58160;51.434;5.978;2023-03-23T00:51:47;34.16;32.17;36.10;;
67294;Laerm;58160;51.434;5.978;2023-03-23T00:51:57;39.23;33.76;44.71;;
67294;Laerm;58160;51.434;5.978;2023-03-23T00:52:09;42.50;39.35;45.35;;
67294;Laerm;58160;51.434;5.978;2023-03-23T00:52:20;40.58;35.71;46.64;;
67294;Laerm;58160;51.434;5.978;2023-03-23T00:52:30;38.54;34.48;56.30;;
67294;Laerm;58160;51.434;5.978;2023-03-23T00:52:41;35.19;33.88;37.12;;
67294;Laerm;58160;51.434;5.978;2023-03-23T00:52:51;33.93;32.35;35.59;;
67294;Laerm;58160;51.434;5.978;2023-03-23T00:53:05;33.29;31.78;35.32;;
67294;Laerm;58160;51.434;5.978;2023-03-23T00:53:16;33.12;31.71;34.45;;
67294;Laerm;58160;51.434;5.978;2023-03-23T00:53:29;33.21;31.50;34.90;;
67294;Laerm;58160;51.434;5.978;2023-03-23T00:53:40;33.94;32.23;35.92;;
67294;Laerm;58160;51.434;5.978;2023-03-23T00:53:50;34.75;32.74;38.75;;
67294;Laerm;58160;51.434;5.978;2023-03-23T00:54:01;33.70;31.32;36.41;;
67294;Laerm;58160;51.434;5.978;2023-03-23T00:54:11;34.55;32.85;37.33;;
67294;Laerm;58160;51.434;5.978;2023-03-23T00:54:22;33.43;31.70;35.74;;
67294;Laerm;58160;51.434;5.978;2023-03-23T00:54:32;33.06;31.40;36.71;;
67294;Laerm;58160;51.434;5.978;2023-03-23T00:54:44;32.69;31.35;34.52;;
67294;Laerm;58160;51.434;5.978;2023-03-23T00:54:54;32.25;30.85;35.69;;
67294;Laerm;58160;51.434;5.978;2023-03-23T00:55:05;32.35;31.16;35.52;;
67294;Laerm;58160;51.434;5.978;2023-03-23T00:55:15;32.67;30.88;33.92;;
67294;Laerm;58160;51.434;5.978;2023-03-23T00:55:26;33.54;31.84;35.76;;
67294;Laerm;58160;51.434;5.978;2023-03-23T00:55:36;32.99;31.64;34.58;;
67294;Laerm;58160;51.434;5.978;2023-03-23T00:55:47;34.27;31.71;40.76;;
67294;Laerm;58160;51.434;5.978;2023-03-23T00:55:57;34.13;32.45;38.02;;
67294;Laerm;58160;51.434;5.978;2023-03-23T00:56:08;33.23;31.55;37.02;;
67294;Laerm;58160;51.434;5.978;2023-03-23T00:56:18;34.43;32.06;37.11;;
67294;Laerm;58160;51.434;5.978;2023-03-23T00:56:29;34.26;32.58;36.10;;
67294;Laerm;58160;51.434;5.978;2023-03-23T00:56:40;34.10;32.24;36.55;;
67294;Laerm;58160;51.434;5.978;2023-03-23T00:56:50;34.58;32.37;49.19;;
67294;Laerm;58160;51.434;5.978;2023-03-23T00:57:01;33.89;32.30;35.88;;
67294;Laerm;58160;51.434;5.978;2023-03-23T00:57:11;33.26;31.34;35.19;;
67294;Laerm;58160;51.434;5.978;2023-03-23T00:57:21;33.24;31.59;34.81;;
67294;Laerm;58160;51.434;5.978;2023-03-23T00:57:34;32.96;31.39;34.26;;
67294;Laerm;58160;51.434;5.978;2023-03-23T00:57:44;33.30;31.60;36.04;;
67294;Laerm;58160;51.434;5.978;2023-03-23T00:57:55;34.07;31.71;35.79;;
67294;Laerm;58160;51.434;5.978;2023-03-23T00:58:05;33.86;32.07;35.58;;
67294;Laerm;58160;51.434;5.978;2023-03-23T00:58:15;35.92;33.94;40.86;;
67294;Laerm;58160;51.434;5.978;2023-03-23T00:58:26;34.70;32.93;36.96;;
67294;Laerm;58160;51.434;5.978;2023-03-23T00:58:36;34.66;33.39;36.41;;
67294;Laerm;58160;51.434;5.978;2023-03-23T00:58:47;36.05;34.15;40.49;;
67294;Laerm;58160;51.434;5.978;2023-03-23T00:58:57;36.96;34.21;45.41;;
67294;Laerm;58160;51.434;5.978;2023-03-23T00:59:07;34.39;32.00;45.19;;
67294;Laerm;58160;51.434;5.978;2023-03-23T00:59:18;33.27;31.66;34.79;;
67294;Laerm;58160;51.434;5.978;2023-03-23T00:59:28;34.29;32.39;36.07;;
67294;Laerm;58160;51.434;5.978;2023-03-23T00:59:38;35.33;32.37;46.82;;
67294;Laerm;58160;51.434;5.978;2023-03-23T00:59:49;33.70;31.93;35.97;;
67294;Laerm;58160;51.434;5.978;2023-03-23T00:59:59;33.70;32.22;35.52;;
67294;Laerm;58160;51.434;5.978;2023-03-23T01:00:10;34.71;32.81;36.82;;
67294;Laerm;58160;51.434;5.978;2023-03-23T01:00:21;34.88;32.88;37.44;;
67294;Laerm;58160;51.434;5.978;2023-03-23T01:00:32;33.90;31.88;36.04;;
67294;Laerm;58160;51.434;5.978;2023-03-23T01:00:42;34.05;32.01;38.81;;
67294;Laerm;58160;51.434;5.978;2023-03-23T01:00:53;33.50;31.62;39.25;;
67294;Laerm;58160;51.434;5.978;2023-03-23T01:01:04;32.66;30.60;37.85;;
67294;Laerm;58160;51.434;5.978;2023-03-23T01:01:14;32.74;31.27;34.71;;
67294;Laerm;58160;51.434;5.978;2023-03-23T01:01:25;32.60;30.77;34.07;;
67294;Laerm;58160;51.434;5.978;2023-03-23T01:01:35;32.38;31.13;33.78;;
67294;Laerm;58160;51.434;5.978;2023-03-23T01:01:45;32.45;30.78;35.96;;
67294;Laerm;58160;51.434;5.978;2023-03-23T01:01:56;32.49;30.87;34.49;;
67294;Laerm;58160;51.434;5.978;2023-03-23T01:02:06;33.84;31.45;37.56;;
67294;Laerm;58160;51.434;5.978;2023-03-23T01:02:16;34.04;31.65;38.21;;
67294;Laerm;58160;51.434;5.978;2023-03-23T01:02:28;33.05;31.28;34.68;;
67294;Laerm;58160;51.434;5.978;2023-03-23T01:02:38;32.32;30.97;33.89;;
67294;Laerm;58160;51.434;5.978;2023-03-23T01:02:52;33.10;31.49;36.45;;
67294;Laerm;58160;51.434;5.978;2023-03-23T01:03:02;33.30;31.54;36.92;;
67294;Laerm;58160;51.434;5.978;2023-03-23T01:03:13;39.42;33.55;51.86;;
67294;Laerm;58160;51.434;5.978;2023-03-23T01:03:28;33.83;31.61;41.21;;
67294;Laerm;58160;51.434;5.978;2023-03-23T01:03:39;34.24;32.63;36.67;;
67294;Laerm;58160;51.434;5.978;2023-03-23T01:03:49;33.84;31.89;36.74;;
67294;Laerm;58160;51.434;5.978;2023-03-23T01:03:59;34.08;32.21;44.14;;
67294;Laerm;58160;51.434;5.978;2023-03-23T01:04:14;33.77;31.67;38.59;;
67294;Laerm;58160;51.434;5.978;2023-03-23T01:04:24;35.95;33.28;38.36;;
67294;Laerm;58160;51.434;5.978;2023-03-23T01:04:37;39.83;35.98;44.94;;
67294;Laerm;58160;51.434;5.978;2023-03-23T01:04:47;38.94;34.01;50.90;;
67294;Laerm;58160;51.434;5.978;2023-03-23T01:05:02;35.30;32.87;38.28;;
67294;Laerm;58160;51.434;5.978;2023-03-23T01:05:13;37.76;32.11;53.67;;
67294;Laerm;58160;51.434;5.978;2023-03-23T01:05:25;34.30;32.30;46.86;;
67294;Laerm;58160;51.434;5.978;2023-03-23T01:05:41;34.87;32.63;37.36;;